Time;durP1;ratioP1;P1;durP2;ratioP2;P2;SDS_P1;SDS_P2;PMS_P1;PMS_P2;Temp;Humidity;BMP_temperature;BMP_pressure;BME280_temperature;BME280_humidity;BME280_pressure;Samples;Min_cycle;Max_cycle;Signal;HPM_P1;HPM_P2
2024/01/15 00:00:05;;;;;;;0.30;0.30;;;;;;;;;;5065831;28;20263;-76
2024/01/15 00:02:31;;;;;;;0.20;0.20;;;;;;;;;;5054188;28;20240;-76
2024/01/15 00:04:59;;;;;;;0.30;0.30;;;;;;;;;;5065437;28;20224;-77
2024/01/15 00:07:25;;;;;;;0.40;0.40;;;;;;;;;;5054149;28;20481;-77
2024/01/15 00:09:52;;;;;;;0.30;0.30;;;;;;;;;;5065663;28;20206;-77
2024/01/15 00:12:18;;;;;;;0.30;0.30;;;;;;;;;;5054070;28;20248;-76
2024/01/15 00:14:44;;;;;;;0.30;0.30;;;;;;;;;;5065514;28;20241;-76
2024/01/15 00:17:11;;;;;;;0.30;0.30;;;;;;;;;;5054086;28;20242;-77
2024/01/15 00:19:37;;;;;;;0.30;0.30;;;;;;;;;;5065132;28;20278;-76
2024/01/15 00:22:05;;;;;;;0.30;0.30;;;;;;;;;;5053923;28;20285;-76
2024/01/15 00:24:31;;;;;;;0.30;0.30;;;;;;;;;;5065240;28;20253;-77
2024/01/15 00:26:58;;;;;;;0.30;0.30;;;;;;;;;;5053967;28;20246;-77
2024/01/15 00:29:24;;;;;;;0.30;0.30;;;;;;;;;;5064949;28;20206;-77
2024/01/15 00:31:50;;;;;;;3.40;3.30;;;;;;;;;;5053906;28;20247;-77
2024/01/15 00:34:17;;;;;;;0.30;0.30;;;;;;;;;;5065061;28;20206;-76
2024/01/15 00:36:43;;;;;;;0.30;0.30;;;;;;;;;;5053817;28;20242;-76
2024/01/15 00:39:11;;;;;;;0.37;0.37;;;;;;;;;;5064620;28;20227;-76
2024/01/15 00:41:38;;;;;;;0.30;0.30;;;;;;;;;;5053805;28;20252;-76
2024/01/15 00:44:04;;;;;;;0.30;0.30;;;;;;;;;;5064451;28;20262;-76
2024/01/15 00:46:31;;;;;;;0.30;0.30;;;;;;;;;;5053744;28;20245;-76
2024/01/15 00:48:57;;;;;;;0.20;0.20;;;;;;;;;;5064664;28;20227;-76
2024/01/15 00:51:23;;;;;;;0.30;0.30;;;;;;;;;;5053686;28;20479;-75
2024/01/15 00:53:50;;;;;;;0.30;0.30;;;;;;;;;;5064178;28;20209;-76
2024/01/15 00:56:18;;;;;;;0.30;0.30;;;;;;;;;;5053774;28;20240;-75
2024/01/15 00:58:44;;;;;;;0.30;0.30;;;;;;;;;;5064222;28;20451;-77
2024/01/15 01:01:10;;;;;;;0.30;0.30;;;;;;;;;;5053640;28;20250;-76
2024/01/15 01:03:37;;;;;;;0.30;0.30;;;;;;;;;;5064069;28;20422;-76
2024/01/15 01:06:04;;;;;;;0.93;0.93;;;;;;;;;;5053481;28;20240;-76
2024/01/15 01:08:30;;;;;;;0.30;0.30;;;;;;;;;;5063499;28;20213;-76
2024/01/15 01:10:57;;;;;;;0.30;0.30;;;;;;;;;;5053378;28;20250;-75
2024/01/15 01:13:24;;;;;;;0.30;0.30;;;;;;;;;;5063778;28;20261;-76
2024/01/15 01:15:51;;;;;;;0.30;0.30;;;;;;;;;;5053612;28;20322;-77
2024/01/15 01:18:17;;;;;;;0.30;0.30;;;;;;;;;;5063723;28;20273;-77
2024/01/15 01:20:44;;;;;;;0.30;0.30;;;;;;;;;;5053631;28;20244;-76
2024/01/15 01:23:10;;;;;;;0.30;0.30;;;;;;;;;;5063113;28;20264;-76
2024/01/15 01:25:36;;;;;;;0.30;0.30;;;;;;;;;;5053685;28;20444;-77
2024/01/15 01:28:03;;;;;;;0.30;0.30;;;;;;;;;;5063480;28;20275;-76
2024/01/15 01:30:31;;;;;;;0.30;0.30;;;;;;;;;;5053149;28;20288;-76
2024/01/15 01:32:57;;;;;;;0.30;0.30;;;;;;;;;;5063064;28;20219;-76
2024/01/15 01:35:23;;;;;;;0.30;0.30;;;;;;;;;;5053141;28;20235;-76
2024/01/15 01:37:50;;;;;;;0.30;0.30;;;;;;;;;;5062857;28;20212;-77
2024/01/15 01:40:16;;;;;;;0.30;0.30;;;;;;;;;;5053620;28;20240;-76
2024/01/15 01:42:43;;;;;;;0.30;0.30;;;;;;;;;;5062909;28;20248;-76
2024/01/15 01:45:09;;;;;;;0.30;0.30;;;;;;;;;;5059556;28;20236;-76
2024/01/15 01:47:38;;;;;;;0.67;0.67;;;;;;;;;;5062868;28;20235;-76
2024/01/15 01:50:05;;;;;;;0.30;0.30;;;;;;;;;;5063825;28;20252;-76
2024/01/15 01:52:32;;;;;;;0.30;0.30;;;;;;;;;;5052233;28;20243;-76
2024/01/15 01:54:59;;;;;;;0.30;0.30;;;;;;;;;;5063864;28;20419;-76
2024/01/15 01:57:26;;;;;;;0.30;0.30;;;;;;;;;;5052132;28;20238;-76
2024/01/15 01:59:52;;;;;;;0.30;0.30;;;;;;;;;;5063264;28;20214;-77
2024/01/15 02:02:19;;;;;;;0.30;0.30;;;;;;;;;;5052033;28;20492;-77
2024/01/15 02:04:47;;;;;;;0.30;0.30;;;;;;;;;;5063380;28;20254;-76
2024/01/15 02:07:16;;;;;;;0.30;0.30;;;;;;;;;;5052042;28;20490;-76
2024/01/15 02:09:43;;;;;;;0.30;0.30;;;;;;;;;;5063469;28;20204;-76
2024/01/15 02:12:09;;;;;;;0.30;0.30;;;;;;;;;;5052135;28;20481;-76
2024/01/15 02:14:36;;;;;;;0.30;0.30;;;;;;;;;;5063367;28;20211;-76
2024/01/15 02:17:02;;;;;;;0.30;0.30;;;;;;;;;;5052101;28;20259;-77
2024/01/15 02:19:28;;;;;;;0.30;0.30;;;;;;;;;;5063296;28;20239;-76
2024/01/15 02:21:56;;;;;;;0.30;0.30;;;;;;;;;;5051903;28;20261;-76
2024/01/15 02:24:24;;;;;;;0.30;0.30;;;;;;;;;;5062841;28;20258;-76
2024/01/15 02:26:51;;;;;;;0.30;0.30;;;;;;;;;;5052050;28;20264;-76
2024/01/15 02:29:17;;;;;;;0.30;0.30;;;;;;;;;;5063285;28;20207;-76
2024/01/15 02:31:43;;;;;;;0.30;0.30;;;;;;;;;;5052140;28;20249;-76
2024/01/15 02:34:10;;;;;;;0.30;0.30;;;;;;;;;;5063045;28;20206;-77
2024/01/15 02:36:36;;;;;;;0.30;0.30;;;;;;;;;;5051909;28;20247;-75
2024/01/15 02:39:03;;;;;;;0.30;0.30;;;;;;;;;;5063061;28;20211;-77
2024/01/15 02:41:30;;;;;;;1.90;1.90;;;;;;;;;;5052095;28;20240;-76
2024/01/15 02:43:57;;;;;;;0.20;0.20;;;;;;;;;;5066868;28;20480;-76
2024/01/15 02:46:23;;;;;;;0.30;0.30;;;;;;;;;;5056038;28;20302;-76
2024/01/15 02:48:49;;;;;;;0.23;0.23;;;;;;;;;;5066534;28;20214;-76
2024/01/15 02:51:16;;;;;;;0.30;0.30;;;;;;;;;;5056134;28;20309;-76
2024/01/15 02:53:42;;;;;;;0.30;0.30;;;;;;;;;;5066681;28;20411;-76
2024/01/15 02:56:09;;;;;;;0.30;0.30;;;;;;;;;;5055796;28;20263;-76
2024/01/15 02:58:36;;;;;;;0.30;0.30;;;;;;;;;;5066309;28;20515;-76
2024/01/15 03:01:03;;;;;;;0.30;0.30;;;;;;;;;;5056100;28;20492;-76
2024/01/15 03:03:29;;;;;;;0.67;0.67;;;;;;;;;;5065908;28;20229;-75
2024/01/15 03:05:55;;;;;;;0.30;0.30;;;;;;;;;;5055733;28;20263;-76
2024/01/15 03:08:22;;;;;;;0.30;0.30;;;;;;;;;;5066091;28;20245;-75
2024/01/15 03:10:51;;;;;;;0.30;0.30;;;;;;;;;;5056052;28;20419;-76
2024/01/15 03:13:19;;;;;;;0.30;0.30;;;;;;;;;;5065744;28;20533;-76
2024/01/15 03:15:46;;;;;;;0.30;0.30;;;;;;;;;;5055964;28;20247;-76
2024/01/15 03:18:13;;;;;;;0.30;0.30;;;;;;;;;;5065624;28;20204;-76
2024/01/15 03:20:39;;;;;;;0.30;0.30;;;;;;;;;;5056078;28;20309;-75
2024/01/15 03:23:06;;;;;;;0.30;0.30;;;;;;;;;;5065255;28;20228;-75
2024/01/15 03:25:32;;;;;;;0.30;0.30;;;;;;;;;;5056036;28;20309;-76
2024/01/15 03:27:58;;;;;;;0.30;0.30;;;;;;;;;;5065717;28;20192;-76
2024/01/15 03:30:25;;;;;;;0.30;0.30;;;;;;;;;;5055884;28;20217;-76
2024/01/15 03:32:52;;;;;;;0.30;0.30;;;;;;;;;;5065313;28;20234;-75
2024/01/15 03:35:19;;;;;;;0.30;0.30;;;;;;;;;;5055968;28;20403;-76
2024/01/15 03:37:45;;;;;;;0.30;0.30;;;;;;;;;;5065365;28;20308;-76
2024/01/15 03:40:12;;;;;;;0.30;0.30;;;;;;;;;;5055923;28;20204;-75
2024/01/15 03:42:39;;;;;;;0.20;0.20;;;;;;;;;;5064900;28;20202;-76
2024/01/15 03:45:05;;;;;;;0.30;0.30;;;;;;;;;;5066100;28;20272;-75
2024/01/15 03:47:32;;;;;;;0.30;0.30;;;;;;;;;;5054454;28;20303;-75
2024/01/15 03:49:59;;;;;;;0.30;0.30;;;;;;;;;;5066169;28;20296;-76
2024/01/15 03:52:26;;;;;;;0.30;0.30;;;;;;;;;;5054343;28;20262;-76
2024/01/15 03:54:52;;;;;;;0.30;0.30;;;;;;;;;;5065342;28;20423;-75
2024/01/15 03:57:19;;;;;;;0.30;0.30;;;;;;;;;;5054331;28;20249;-76
2024/01/15 03:59:47;;;;;;;0.30;0.30;;;;;;;;;;5066010;28;20384;-76
2024/01/15 04:02:14;;;;;;;0.30;0.30;;;;;;;;;;5054213;28;20242;-75
2024/01/15 04:04:41;;;;;;;0.40;0.40;;;;;;;;;;5065594;28;20233;-76
2024/01/15 04:07:09;;;;;;;0.30;0.30;;;;;;;;;;5054046;28;20609;-75
2024/01/15 04:09:35;;;;;;;0.30;0.30;;;;;;;;;;5065785;28;20239;-76
2024/01/15 04:12:02;;;;;;;0.20;0.20;;;;;;;;;;5054141;28;20258;-75
2024/01/15 04:14:28;;;;;;;9.27;8.40;;;;;;;;;;5065491;28;20235;-76
2024/01/15 04:16:55;;;;;;;0.30;0.30;;;;;;;;;;5054080;28;20259;-76
2024/01/15 04:19:21;;;;;;;0.33;0.33;;;;;;;;;;5065248;28;20215;-76
2024/01/15 04:21:47;;;;;;;0.30;0.30;;;;;;;;;;5053966;28;20261;-76
2024/01/15 04:24:17;;;;;;;0.30;0.30;;;;;;;;;;5065077;28;20236;-74
2024/01/15 04:26:44;;;;;;;0.30;0.30;;;;;;;;;;5054041;28;20463;-76
2024/01/15 04:29:10;;;;;;;0.30;0.30;;;;;;;;;;5065128;28;20242;-76
2024/01/15 04:31:37;;;;;;;0.30;0.30;;;;;;;;;;5053904;28;20262;-76
2024/01/15 04:34:03;;;;;;;0.30;0.30;;;;;;;;;;5064918;28;20203;-76
2024/01/15 04:36:29;;;;;;;0.30;0.30;;;;;;;;;;5053853;28;20312;-76
2024/01/15 04:38:56;;;;;;;0.33;0.33;;;;;;;;;;5064891;28;20441;-76
2024/01/15 04:41:23;;;;;;;0.30;0.30;;;;;;;;;;5053978;28;20245;-76
2024/01/15 04:43:50;;;;;;;0.30;0.30;;;;;;;;;;5064433;28;20262;-77
2024/01/15 04:46:16;;;;;;;0.30;0.30;;;;;;;;;;5053596;28;20242;-76
2024/01/15 04:48:45;;;;;;;0.30;0.30;;;;;;;;;;5064262;28;20245;-76
2024/01/15 04:51:12;;;;;;;0.30;0.30;;;;;;;;;;5053882;28;20282;-76
2024/01/15 04:53:38;;;;;;;0.63;0.63;;;;;;;;;;5064364;28;20232;-76
2024/01/15 04:56:05;;;;;;;0.30;0.30;;;;;;;;;;5053810;28;20499;-75
2024/01/15 04:58:33;;;;;;;0.33;0.33;;;;;;;;;;5063646;28;20200;-76
2024/01/15 05:00:59;;;;;;;0.30;0.30;;;;;;;;;;5053644;28;20300;-76
2024/01/15 05:03:25;;;;;;;0.30;0.30;;;;;;;;;;5063473;28;20291;-76
2024/01/15 05:05:52;;;;;;;0.30;0.30;;;;;;;;;;5052518;28;20258;-76
2024/01/15 05:08:18;;;;;;;0.30;0.30;;;;;;;;;;5063548;28;20280;-76
2024/01/15 05:10:54;;;;;;;0.30;0.30;;;;;;;;;;5053994;28;20320;-76
2024/01/15 05:13:21;;;;;;;0.30;0.30;;;;;;;;;;5063707;28;20445;-76
2024/01/15 05:15:48;;;;;;;0.30;0.30;;;;;;;;;;5053563;28;20308;-75
2024/01/15 05:18:15;;;;;;;0.30;0.30;;;;;;;;;;5063428;28;20229;-76
2024/01/15 05:20:42;;;;;;;0.30;0.30;;;;;;;;;;5053805;28;20570;-76
2024/01/15 05:23:08;;;;;;;0.30;0.30;;;;;;;;;;5063238;28;20207;-76
2024/01/15 05:25:34;;;;;;;0.30;0.30;;;;;;;;;;5053883;28;20246;-76
2024/01/15 05:28:01;;;;;;;0.30;0.30;;;;;;;;;;5063166;28;20270;-76
2024/01/15 05:30:27;;;;;;;0.30;0.30;;;;;;;;;;5053315;28;20222;-76
2024/01/15 05:32:55;;;;;;;0.30;0.30;;;;;;;;;;5063347;28;20446;-76
2024/01/15 05:35:21;;;;;;;0.33;0.33;;;;;;;;;;5053544;28;20211;-76
2024/01/15 05:37:48;;;;;;;0.30;0.30;;;;;;;;;;5063154;28;20196;-75
2024/01/15 05:40:14;;;;;;;0.30;0.30;;;;;;;;;;5053565;28;20204;-76
2024/01/15 05:42:41;;;;;;;0.30;0.30;;;;;;;;;;5062636;28;20193;-75
2024/01/15 05:45:08;;;;;;;0.30;0.30;;;;;;;;;;5063903;28;20241;-75
2024/01/15 05:47:34;;;;;;;0.30;0.30;;;;;;;;;;5052143;28;20231;-76
2024/01/15 05:50:02;;;;;;;0.30;0.30;;;;;;;;;;5063987;28;20205;-76
2024/01/15 05:52:29;;;;;;;0.30;0.30;;;;;;;;;;5052072;28;20246;-76
2024/01/15 05:54:55;;;;;;;0.30;0.30;;;;;;;;;;5063609;28;20207;-76
2024/01/15 05:57:21;;;;;;;0.30;0.30;;;;;;;;;;5052122;28;20284;-75
2024/01/15 05:59:48;;;;;;;0.33;0.33;;;;;;;;;;5063763;28;20204;-76
2024/01/15 06:02:14;;;;;;;0.30;0.30;;;;;;;;;;5052007;28;20252;-76
2024/01/15 06:04:41;;;;;;;0.30;0.30;;;;;;;;;;5063496;28;20259;-75
2024/01/15 06:07:08;;;;;;;0.30;0.30;;;;;;;;;;5051774;28;20244;-76
2024/01/15 06:09:35;;;;;;;0.37;0.37;;;;;;;;;;5063589;28;20274;-75
2024/01/15 06:12:01;;;;;;;0.30;0.30;;;;;;;;;;5052121;28;20304;-75
2024/01/15 06:14:28;;;;;;;0.30;0.30;;;;;;;;;;5063549;28;20447;-76
2024/01/15 06:16:54;;;;;;;0.30;0.30;;;;;;;;;;5051889;28;20249;-78
2024/01/15 06:19:20;;;;;;;0.30;0.30;;;;;;;;;;5063094;28;20219;-76
2024/01/15 06:21:47;;;;;;;0.30;0.30;;;;;;;;;;5052104;28;20290;-75
2024/01/15 06:24:17;;;;;;;0.30;0.30;;;;;;;;;;5062910;28;20230;-76
2024/01/15 06:26:44;;;;;;;0.33;0.33;;;;;;;;;;5052011;28;20243;-77
2024/01/15 06:29:10;;;;;;;0.33;0.33;;;;;;;;;;5063339;28;20274;-76
2024/01/15 06:31:37;;;;;;;0.30;0.30;;;;;;;;;;5052153;28;20446;-76
2024/01/15 06:34:03;;;;;;;0.30;0.30;;;;;;;;;;5062999;28;20480;-76
2024/01/15 06:36:29;;;;;;;0.30;0.30;;;;;;;;;;5051969;28;20258;-79
2024/01/15 06:38:56;;;;;;;0.20;0.20;;;;;;;;;;5062991;28;20213;-80
2024/01/15 06:41:25;;;;;;;0.30;0.30;;;;;;;;;;5052209;28;20557;-79
2024/01/15 06:43:51;;;;;;;0.30;0.30;;;;;;;;;;5063042;28;20373;-79
2024/01/15 06:46:20;;;;;;;0.30;0.30;;;;;;;;;;5052118;28;20239;-76
2024/01/15 06:48:47;;;;;;;0.30;0.30;;;;;;;;;;5062895;28;20198;-80
2024/01/15 06:51:13;;;;;;;0.30;0.30;;;;;;;;;;5052680;28;20279;-80
2024/01/15 06:53:39;;;;;;;0.30;0.30;;;;;;;;;;5062933;28;20234;-80
2024/01/15 06:56:06;;;;;;;0.30;0.30;;;;;;;;;;5052738;28;20239;-79
2024/01/15 06:58:34;;;;;;;0.30;0.30;;;;;;;;;;5062972;28;20271;-78
2024/01/15 07:01:01;;;;;;;0.30;0.30;;;;;;;;;;5052744;28;20577;-79
2024/01/15 07:03:27;;;;;;;0.30;0.30;;;;;;;;;;5062560;28;20253;-80
2024/01/15 07:05:54;;;;;;;0.30;0.30;;;;;;;;;;5052156;28;20247;-79
2024/01/15 07:08:20;;;;;;;0.30;0.30;;;;;;;;;;5062368;28;20208;-78
2024/01/15 07:10:51;;;;;;;0.30;0.30;;;;;;;;;;5052712;28;20300;-78
2024/01/15 07:13:18;;;;;;;0.30;0.30;;;;;;;;;;5062432;28;20202;-77
2024/01/15 07:15:46;;;;;;;0.30;0.30;;;;;;;;;;5053021;28;20240;-80
2024/01/15 07:18:12;;;;;;;0.30;0.30;;;;;;;;;;5062777;28;20269;-78
2024/01/15 07:20:39;;;;;;;0.30;0.30;;;;;;;;;;5053034;28;20336;-79
2024/01/15 07:23:05;;;;;;;5.23;4.93;;;;;;;;;;5062329;28;20197;-80
2024/01/15 07:25:32;;;;;;;0.30;0.30;;;;;;;;;;5053010;28;20322;-80
2024/01/15 07:27:58;;;;;;;0.30;0.30;;;;;;;;;;5062377;28;20246;-79
2024/01/15 07:30:25;;;;;;;0.30;0.30;;;;;;;;;;5056353;28;20209;-80
2024/01/15 07:32:53;;;;;;;0.30;0.30;;;;;;;;;;5066317;28;20185;-80
2024/01/15 07:35:20;;;;;;;0.30;0.30;;;;;;;;;;5056443;28;20204;-79
2024/01/15 07:37:46;;;;;;;0.20;0.20;;;;;;;;;;5066066;28;20195;-80
2024/01/15 07:40:12;;;;;;;0.30;0.30;;;;;;;;;;5056619;28;20235;-80
2024/01/15 07:42:39;;;;;;;0.30;0.30;;;;;;;;;;5065433;28;20575;-78
2024/01/15 07:45:06;;;;;;;0.80;0.80;;;;;;;;;;5066905;28;20280;-79
2024/01/15 07:47:32;;;;;;;0.30;0.30;;;;;;;;;;5054989;28;20270;-80
2024/01/15 07:50:00;;;;;;;0.30;0.30;;;;;;;;;;5066755;28;20238;-80
2024/01/15 07:52:26;;;;;;;0.30;0.30;;;;;;;;;;5054868;28;20300;-80
2024/01/15 07:54:53;;;;;;;0.30;0.30;;;;;;;;;;5066679;28;20202;-80
2024/01/15 07:57:19;;;;;;;0.30;0.30;;;;;;;;;;5054830;28;20261;-79
2024/01/15 07:59:46;;;;;;;0.30;0.30;;;;;;;;;;5066064;28;20218;-80
2024/01/15 08:02:12;;;;;;;0.30;0.30;;;;;;;;;;5054711;28;20246;-79
2024/01/15 08:04:39;;;;;;;0.30;0.30;;;;;;;;;;5066145;28;20564;-78
2024/01/15 08:07:09;;;;;;;0.30;0.30;;;;;;;;;;5054213;28;20242;-76
2024/01/15 08:09:36;;;;;;;0.30;0.30;;;;;;;;;;5067246;28;20273;-78
2024/01/15 08:12:01;;;;;;;0.30;0.30;;;;;;;;;;5054572;28;20425;-79
2024/01/15 08:14:27;;;;;;;0.30;0.30;;;;;;;;;;5065813;28;20243;-80
2024/01/15 08:16:57;;;;;;;0.30;0.30;;;;;;;;;;5054078;28;20247;-78
2024/01/15 08:19:23;;;;;;;0.30;0.30;;;;;;;;;;5065598;28;20521;-78
2024/01/15 08:21:50;;;;;;;0.30;0.30;;;;;;;;;;5054173;28;20558;-79
2024/01/15 08:24:17;;;;;;;0.30;0.30;;;;;;;;;;5064828;28;20260;-79
2024/01/15 08:26:46;;;;;;;0.30;0.30;;;;;;;;;;5054066;28;20239;-79
2024/01/15 08:29:13;;;;;;;0.30;0.30;;;;;;;;;;5065172;28;20267;-80
2024/01/15 08:31:41;;;;;;;0.30;0.30;;;;;;;;;;5053998;28;20242;-79
2024/01/15 08:34:08;;;;;;;0.30;0.30;;;;;;;;;;5065024;28;20204;-79
2024/01/15 08:36:36;;;;;;;0.20;0.20;;;;;;;;;;5053791;28;20296;-79
2024/01/15 08:39:03;;;;;;;0.30;0.30;;;;;;;;;;5064786;28;20206;-79
2024/01/15 08:41:31;;;;;;;0.30;0.30;;;;;;;;;;5053633;28;20251;-80
2024/01/15 08:43:58;;;;;;;0.23;0.23;;;;;;;;;;5064737;28;20453;-78
2024/01/15 08:46:25;;;;;;;0.30;0.30;;;;;;;;;;5053680;28;20578;-78
2024/01/15 08:48:51;;;;;;;0.30;0.30;;;;;;;;;;5064325;28;20211;-78
2024/01/15 08:51:18;;;;;;;0.30;0.30;;;;;;;;;;5053996;28;20579;-78
2024/01/15 08:53:44;;;;;;;0.30;0.30;;;;;;;;;;5064067;28;20411;-77
2024/01/15 08:56:14;;;;;;;0.30;0.30;;;;;;;;;;5053698;28;20239;-79
2024/01/15 08:58:46;;;;;;;0.20;0.20;;;;;;;;;;5063984;28;20515;-79
2024/01/15 09:01:12;;;;;;;0.23;0.23;;;;;;;;;;5054084;28;20241;-79
2024/01/15 09:03:38;;;;;;;0.20;0.20;;;;;;;;;;5063877;28;20246;-79
2024/01/15 09:06:05;;;;;;;0.20;0.20;;;;;;;;;;5053479;28;20309;-79
2024/01/15 09:08:31;;;;;;;0.20;0.20;;;;;;;;;;5064064;28;20206;-79
2024/01/15 09:10:58;;;;;;;0.23;0.23;;;;;;;;;;5054002;28;20526;-79
2024/01/15 09:13:24;;;;;;;0.20;0.20;;;;;;;;;;5063993;28;20245;-79
2024/01/15 09:15:52;;;;;;;0.20;0.20;;;;;;;;;;5054272;28;20239;-79
2024/01/15 09:18:19;;;;;;;0.20;0.20;;;;;;;;;;5063684;28;20199;-78
2024/01/15 09:20:45;;;;;;;0.20;0.20;;;;;;;;;;5053789;28;20272;-80
2024/01/15 09:23:12;;;;;;;0.20;0.20;;;;;;;;;;5063553;28;20243;-78
2024/01/15 09:25:38;;;;;;;0.20;0.20;;;;;;;;;;5053310;28;20256;-79
2024/01/15 09:28:05;;;;;;;0.23;0.23;;;;;;;;;;5063123;28;20187;-78
2024/01/15 09:30:31;;;;;;;0.23;0.23;;;;;;;;;;5053815;28;20324;-78
2024/01/15 09:32:59;;;;;;;0.20;0.20;;;;;;;;;;5063452;28;20195;-78
2024/01/15 09:35:26;;;;;;;0.30;0.30;;;;;;;;;;5053722;28;20407;-79
2024/01/15 09:37:52;;;;;;;1.20;1.20;;;;;;;;;;5062799;28;20232;-79
2024/01/15 09:40:21;;;;;;;0.20;0.20;;;;;;;;;;5053387;28;20278;-77
2024/01/15 09:42:48;;;;;;;0.20;0.20;;;;;;;;;;5062728;28;20188;-79
2024/01/15 09:45:14;;;;;;;0.20;0.20;;;;;;;;;;5053739;28;20237;-78
2024/01/15 09:47:41;;;;;;;0.23;0.23;;;;;;;;;;5062910;28;20223;-77
2024/01/15 09:50:10;;;;;;;3.73;3.53;;;;;;;;;;5063966;28;20486;-78
2024/01/15 09:52:37;;;;;;;0.20;0.20;;;;;;;;;;5051720;28;20208;-78
2024/01/15 09:55:05;;;;;;;0.20;0.20;;;;;;;;;;5063907;28;20200;-78
2024/01/15 09:57:31;;;;;;;0.20;0.20;;;;;;;;;;5052172;28;20532;-78
2024/01/15 09:59:58;;;;;;;0.20;0.20;;;;;;;;;;5063982;28;20207;-78
2024/01/15 10:02:24;;;;;;;0.20;0.20;;;;;;;;;;5052049;28;20306;-79
2024/01/15 10:04:51;;;;;;;0.23;0.23;;;;;;;;;;5063256;28;20225;-78
2024/01/15 10:07:19;;;;;;;0.20;0.20;;;;;;;;;;5051973;28;20258;-79
2024/01/15 10:09:46;;;;;;;0.20;0.20;;;;;;;;;;5063566;28;20216;-80
2024/01/15 10:12:13;;;;;;;0.23;0.23;;;;;;;;;;5052015;28;20498;-78
2024/01/15 10:14:39;;;;;;;0.20;0.20;;;;;;;;;;5063696;28;20273;-79
2024/01/15 10:17:12;;;;;;;0.30;0.30;;;;;;;;;;5051817;28;20265;-79
2024/01/15 10:19:41;;;;;;;0.30;0.30;;;;;;;;;;5063287;28;20282;-79
2024/01/15 10:22:07;;;;;;;0.30;0.30;;;;;;;;;;5051811;28;20308;-78
2024/01/15 10:24:35;;;;;;;0.30;0.30;;;;;;;;;;5063380;28;20234;-79
2024/01/15 10:27:08;;;;;;;0.20;0.20;;;;;;;;;;5051870;28;20445;-79
2024/01/15 10:29:35;;;;;;;0.20;0.20;;;;;;;;;;5063411;28;20440;-79
2024/01/15 10:32:02;;;;;;;0.20;0.20;;;;;;;;;;5051722;28;20305;-79
2024/01/15 10:34:29;;;;;;;0.30;0.30;;;;;;;;;;5063056;28;20204;-79
2024/01/15 10:36:56;;;;;;;0.30;0.30;;;;;;;;;;5051837;28;20249;-78
2024/01/15 10:39:22;;;;;;;0.30;0.30;;;;;;;;;;5063098;28;20206;-79
2024/01/15 10:41:50;;;;;;;0.20;0.20;;;;;;;;;;5051813;28;20250;-79
2024/01/15 10:44:17;;;;;;;0.20;0.20;;;;;;;;;;5062752;28;20568;-79
2024/01/15 10:46:44;;;;;;;0.30;0.30;;;;;;;;;;5051851;28;20240;-78
2024/01/15 10:49:11;;;;;;;0.27;0.27;;;;;;;;;;5062841;28;20207;-79
2024/01/15 10:51:38;;;;;;;0.30;0.30;;;;;;;;;;5051805;28;20270;-78
2024/01/15 10:54:05;;;;;;;0.30;0.30;;;;;;;;;;5062560;28;20230;-78
2024/01/15 10:56:32;;;;;;;0.30;0.30;;;;;;;;;;5051936;28;20510;-79
2024/01/15 10:59:00;;;;;;;0.20;0.20;;;;;;;;;;5062508;28;20279;-79
2024/01/15 11:01:27;;;;;;;0.30;0.30;;;;;;;;;;5052850;28;20242;-82
2024/01/15 11:03:57;;;;;;;0.30;0.30;;;;;;;;;;5065039;28;20238;-82
2024/01/15 11:06:24;;;;;;;0.30;0.30;;;;;;;;;;5056914;28;20327;-82
2024/01/15 11:08:51;;;;;;;0.30;0.30;;;;;;;;;;5067098;28;20213;-82
2024/01/15 11:11:17;;;;;;;0.30;0.30;;;;;;;;;;5056987;28;20448;-82
2024/01/15 11:13:44;;;;;;;0.30;0.30;;;;;;;;;;5066791;28;20213;-82
2024/01/15 11:16:13;;;;;;;0.20;0.20;;;;;;;;;;5056721;28;20309;-82
2024/01/15 11:18:41;;;;;;;0.30;0.30;;;;;;;;;;5066993;28;20230;-82
2024/01/15 11:21:21;;;;;;;0.20;0.20;;;;;;;;;;5057108;28;20243;-82
2024/01/15 11:23:49;;;;;;;0.23;0.23;;;;;;;;;;5066936;28;20214;-82
2024/01/15 11:26:28;;;;;;;0.30;0.30;;;;;;;;;;5056277;28;20269;-82
2024/01/15 11:28:55;;;;;;;0.30;0.30;;;;;;;;;;5067038;28;20223;-82
2024/01/15 11:31:26;;;;;;;0.20;0.20;;;;;;;;;;5056807;28;20248;-81
2024/01/15 11:33:53;;;;;;;0.20;0.20;;;;;;;;;;5067092;28;20233;-82
2024/01/15 11:36:19;;;;;;;1.07;1.07;;;;;;;;;;5056063;28;20262;-82
2024/01/15 11:38:46;;;;;;;0.20;0.20;;;;;;;;;;5066373;28;20267;-82
2024/01/15 11:41:15;;;;;;;0.20;0.20;;;;;;;;;;5055756;28;20289;-82
2024/01/15 11:43:42;;;;;;;0.30;0.30;;;;;;;;;;5066641;28;20440;-81
2024/01/15 11:46:11;;;;;;;0.20;0.20;;;;;;;;;;5055633;28;20247;-82
2024/01/15 11:48:44;;;;;;;0.20;0.20;;;;;;;;;;5066695;28;20215;-83
2024/01/15 11:51:11;;;;;;;0.20;0.20;;;;;;;;;;5055633;28;20309;-83
2024/01/15 11:53:41;;;;;;;0.20;0.20;;;;;;;;;;5065292;28;20275;-83
2024/01/15 11:56:15;;;;;;;0.20;0.20;;;;;;;;;;5055479;28;20314;-75
2024/01/15 11:58:41;;;;;;;0.20;0.20;;;;;;;;;;5065302;28;20542;-78
2024/01/15 12:01:08;;;;;;;0.20;0.20;;;;;;;;;;5055103;28;20255;-74
2024/01/15 12:03:34;;;;;;;0.30;0.30;;;;;;;;;;5065087;28;20204;-77
2024/01/15 12:06:02;;;;;;;0.20;0.20;;;;;;;;;;5054614;28;20238;-77
2024/01/15 12:08:29;;;;;;;0.20;0.20;;;;;;;;;;5064946;28;20321;-79
2024/01/15 12:10:56;;;;;;;0.20;0.20;;;;;;;;;;5054785;28;20311;-78
2024/01/15 12:13:23;;;;;;;0.20;0.20;;;;;;;;;;5064447;28;20211;-78
2024/01/15 12:15:50;;;;;;;0.20;0.20;;;;;;;;;;5053411;28;20461;-77
2024/01/15 12:18:17;;;;;;;0.20;0.20;;;;;;;;;;5062579;28;20204;-78
2024/01/15 12:20:44;;;;;;;0.20;0.20;;;;;;;;;;5054294;28;20265;-77
2024/01/15 12:23:13;;;;;;;0.20;0.20;;;;;;;;;;5064163;28;20220;-77
2024/01/15 12:25:40;;;;;;;0.20;0.20;;;;;;;;;;5054820;28;20242;-78
2024/01/15 12:28:07;;;;;;;0.20;0.20;;;;;;;;;;5064621;28;20220;-77
2024/01/15 12:30:34;;;;;;;0.20;0.20;;;;;;;;;;5054677;28;20245;-78
2024/01/15 12:33:02;;;;;;;0.30;0.30;;;;;;;;;;5064053;28;20192;-77
2024/01/15 12:35:29;;;;;;;0.30;0.30;;;;;;;;;;5054302;28;20207;-77
2024/01/15 12:37:56;;;;;;;0.20;0.20;;;;;;;;;;5064248;28;20199;-77
2024/01/15 12:40:24;;;;;;;0.30;0.30;;;;;;;;;;5054266;28;20207;-78
2024/01/15 12:42:50;;;;;;;0.20;0.20;;;;;;;;;;5063858;28;20192;-77
2024/01/15 12:45:17;;;;;;;0.20;0.20;;;;;;;;;;5054222;28;20196;-77
2024/01/15 12:47:43;;;;;;;0.30;0.30;;;;;;;;;;5064054;28;20216;-75
2024/01/15 12:50:09;;;;;;;0.20;0.20;;;;;;;;;;5060590;28;20395;-75
2024/01/15 12:52:37;;;;;;;0.20;0.20;;;;;;;;;;5063178;28;20392;-76
2024/01/15 12:55:04;;;;;;;0.27;0.27;;;;;;;;;;5064751;28;20207;-76
2024/01/15 12:57:32;;;;;;;0.20;0.20;;;;;;;;;;5053085;28;20323;-75
2024/01/15 12:59:58;;;;;;;0.20;0.20;;;;;;;;;;5064716;28;20202;-75
2024/01/15 13:02:25;;;;;;;0.30;0.30;;;;;;;;;;5053083;28;20518;-75
2024/01/15 13:04:52;;;;;;;0.23;0.23;;;;;;;;;;5064195;28;20457;-76
2024/01/15 13:07:18;;;;;;;0.23;0.23;;;;;;;;;;5052992;28;20238;-75
2024/01/15 13:09:45;;;;;;;0.20;0.20;;;;;;;;;;5064171;28;20200;-76
2024/01/15 13:12:11;;;;;;;5.57;4.93;;;;;;;;;;5052855;28;20294;-76
2024/01/15 13:14:40;;;;;;;0.20;0.20;;;;;;;;;;5064404;28;20420;-77
2024/01/15 13:17:07;;;;;;;0.20;0.20;;;;;;;;;;5053005;28;20289;-75
2024/01/15 13:19:33;;;;;;;0.20;0.20;;;;;;;;;;5064207;28;20231;-76
2024/01/15 13:22:01;;;;;;;0.20;0.20;;;;;;;;;;5052927;28;20305;-74
2024/01/15 13:24:27;;;;;;;0.20;0.20;;;;;;;;;;5063881;28;20204;-78
2024/01/15 13:26:54;;;;;;;0.20;0.20;;;;;;;;;;5052056;28;20305;-77
2024/01/15 13:29:21;;;;;;;0.30;0.30;;;;;;;;;;5063742;28;20214;-76
2024/01/15 13:31:49;;;;;;;0.30;0.30;;;;;;;;;;5052747;28;20247;-76
2024/01/15 13:34:15;;;;;;;0.27;0.27;;;;;;;;;;5063777;28;20207;-75
2024/01/15 13:36:41;;;;;;;0.20;0.20;;;;;;;;;;5052599;28;20251;-76
2024/01/15 13:39:08;;;;;;;0.20;0.20;;;;;;;;;;5063338;28;20199;-76
2024/01/15 13:41:35;;;;;;;0.20;0.20;;;;;;;;;;5052666;28;20243;-76
2024/01/15 13:44:02;;;;;;;0.20;0.20;;;;;;;;;;5063283;28;20235;-76
2024/01/15 13:46:29;;;;;;;0.20;0.20;;;;;;;;;;5052460;28;20234;-76
2024/01/15 13:48:57;;;;;;;0.30;0.30;;;;;;;;;;5063142;28;20203;-77
2024/01/15 13:51:24;;;;;;;0.30;0.30;;;;;;;;;;5052359;28;20308;-75
2024/01/15 13:53:50;;;;;;;0.20;0.20;;;;;;;;;;5063286;28;20518;-76
2024/01/15 13:56:17;;;;;;;0.20;0.20;;;;;;;;;;5052617;28;20481;-76
2024/01/15 13:58:43;;;;;;;0.20;0.20;;;;;;;;;;5062884;28;20204;-75
2024/01/15 14:01:10;;;;;;;0.20;0.20;;;;;;;;;;5052826;28;20249;-77
2024/01/15 14:03:37;;;;;;;0.30;0.30;;;;;;;;;;5062500;28;20565;-76
2024/01/15 14:06:08;;;;;;;0.20;0.20;;;;;;;;;;5052099;28;20283;-76
2024/01/15 14:08:35;;;;;;;0.27;0.27;;;;;;;;;;5062625;28;20227;-77
2024/01/15 14:11:01;;;;;;;0.20;0.20;;;;;;;;;;5052392;28;20242;-76
2024/01/15 14:13:27;;;;;;;0.20;0.20;;;;;;;;;;5062599;28;20463;-76
2024/01/15 14:15:54;;;;;;;0.27;0.27;;;;;;;;;;5052552;28;20297;-77
2024/01/15 14:18:22;;;;;;;0.20;0.20;;;;;;;;;;5062226;28;20204;-76
2024/01/15 14:20:48;;;;;;;0.30;0.30;;;;;;;;;;5052683;28;20239;-77
2024/01/15 14:23:16;;;;;;;0.20;0.20;;;;;;;;;;5062436;28;20555;-76
2024/01/15 14:25:42;;;;;;;0.20;0.20;;;;;;;;;;5052824;28;20272;-76
2024/01/15 14:28:09;;;;;;;0.27;0.27;;;;;;;;;;5062403;28;20461;-77
2024/01/15 14:30:35;;;;;;;0.27;0.27;;;;;;;;;;5052919;28;20500;-78
2024/01/15 14:33:01;;;;;;;0.20;0.20;;;;;;;;;;5062574;28;20398;-77
2024/01/15 14:35:28;;;;;;;0.20;0.20;;;;;;;;;;5052730;28;20230;-76
2024/01/15 14:37:58;;;;;;;0.20;0.20;;;;;;;;;;5063640;28;20191;-77
2024/01/15 14:40:30;;;;;;;0.20;0.20;;;;;;;;;;5052865;28;20216;-75